createdAt,value
2023-05-10T00:01:11.076Z,16.23
2023-05-10T00:03:38.617Z,16.23
2023-05-10T00:06:07.683Z,16.23
2023-05-10T00:08:35.147Z,16.23
2023-05-10T00:11:02.775Z,16.22
2023-05-10T00:13:30.309Z,16.23
2023-05-10T00:15:57.875Z,16.23
2023-05-10T00:18:25.444Z,16.24
2023-05-10T00:20:52.909Z,16.23
2023-05-10T00:23:21.671Z,16.23
2023-05-10T00:25:49.120Z,16.23
2023-05-10T00:28:16.556Z,16.24
2023-05-10T00:30:43.978Z,16.23
2023-05-10T00:33:12.507Z,16.23
2023-05-10T00:35:39.988Z,16.22
2023-05-10T00:38:07.472Z,16.23
2023-05-10T00:40:37.388Z,16.22
2023-05-10T00:43:04.857Z,16.22
2023-05-10T00:45:33.047Z,16.23
2023-05-10T00:48:01.081Z,16.22
2023-05-10T00:50:28.624Z,16.20
2023-05-10T00:52:56.642Z,16.22
2023-05-10T00:55:24.136Z,16.22
2023-05-10T00:57:54.120Z,16.21
2023-05-10T01:00:21.748Z,16.22
2023-05-10T01:02:50.592Z,16.21
2023-05-10T01:05:19.881Z,16.21
2023-05-10T01:07:48.420Z,16.20
2023-05-10T01:10:17.840Z,16.22
2023-05-10T01:12:48.501Z,16.20
2023-05-10T02:22:53.430Z,16.20
2023-05-10T02:25:22.047Z,16.19
2023-05-10T02:27:50.238Z,16.20
2023-05-10T02:30:18.735Z,16.20
2023-05-10T02:32:46.719Z,16.19
2023-05-10T02:35:14.703Z,16.20
2023-05-10T02:37:43.234Z,16.20
2023-05-10T02:40:12.854Z,16.20
2023-05-10T02:42:43.556Z,16.20
2023-05-10T02:45:13.852Z,16.19
2023-05-10T02:47:41.474Z,16.20
2023-05-10T02:50:09.318Z,16.20
2023-05-10T02:52:41.043Z,16.20
2023-05-10T02:55:11.071Z,16.18
2023-05-10T02:57:43.247Z,16.20
2023-05-10T03:00:11.109Z,16.19
2023-05-10T03:02:38.612Z,16.20
2023-05-10T03:05:06.422Z,16.19
2023-05-10T03:07:34.828Z,16.19
2023-05-10T03:10:02.703Z,16.20
2023-05-10T03:12:35.581Z,16.20
2023-05-10T03:15:09.133Z,16.19
2023-05-10T03:17:38.998Z,16.21
2023-05-10T03:20:08.982Z,16.20
2023-05-10T03:22:38.356Z,16.21
2023-05-10T03:25:07.510Z,16.20
2023-05-10T03:27:36.124Z,16.20
2023-05-10T03:30:07.245Z,16.21
2023-05-10T03:32:35.785Z,16.22
2023-05-10T03:35:03.302Z,16.22
2023-05-10T03:37:30.780Z,16.21
2023-05-10T03:39:58.222Z,16.20
2023-05-10T03:42:25.761Z,16.21
2023-05-10T03:44:53.198Z,16.21
2023-05-10T03:47:21.978Z,16.20
2023-05-10T03:49:49.441Z,16.19
2023-05-10T03:52:16.954Z,16.20
2023-05-10T03:54:44.376Z,16.20
2023-05-10T03:57:11.866Z,16.20
2023-05-10T03:59:39.362Z,16.20
2023-05-10T04:02:07.364Z,16.19
2023-05-10T04:04:36.211Z,16.20
2023-05-10T04:07:03.813Z,16.19
2023-05-10T04:09:31.276Z,16.20
2023-05-10T04:11:58.755Z,16.20
2023-05-10T04:14:26.194Z,16.20
2023-05-10T04:16:53.711Z,16.20
2023-05-10T04:19:21.456Z,16.21
2023-05-10T04:21:50.217Z,16.19
2023-05-10T04:24:17.678Z,16.20
2023-05-10T04:26:45.112Z,16.19
2023-05-10T04:29:12.543Z,16.20
2023-05-10T04:31:40.005Z,16.20
2023-05-10T04:34:07.526Z,16.19
2023-05-10T04:36:36.701Z,16.20
2023-05-10T04:39:05.997Z,16.20
2023-05-10T04:41:33.494Z,16.20
2023-05-10T04:44:00.965Z,16.21
2023-05-10T04:46:28.427Z,16.21
2023-05-10T04:48:55.948Z,16.21
2023-05-10T04:51:23.349Z,16.21
2023-05-10T04:54:01.478Z,16.21
2023-05-10T04:56:34.761Z,16.21
2023-05-10T04:59:02.344Z,16.21
2023-05-10T05:01:29.782Z,16.22
2023-05-10T05:03:57.423Z,16.22
2023-05-10T05:06:25.871Z,16.22
2023-05-10T05:08:53.407Z,16.22
2023-05-10T05:11:21.918Z,16.23
2023-05-10T05:13:50.715Z,16.22
2023-05-10T05:16:18.137Z,16.22
2023-05-10T05:18:45.660Z,16.21
2023-05-10T05:21:17.205Z,16.21
2023-05-10T05:23:44.735Z,16.20
2023-05-10T05:26:12.395Z,16.21
2023-05-10T05:28:40.017Z,16.21
2023-05-10T05:31:10.185Z,16.22
2023-05-10T05:33:37.950Z,16.22
2023-05-10T05:36:06.598Z,16.21
2023-05-10T05:38:34.258Z,16.20
2023-05-10T05:41:01.732Z,16.21
2023-05-10T05:43:29.182Z,16.21
2023-05-10T05:45:58.863Z,16.20
2023-05-10T05:48:28.002Z,16.20
2023-05-10T05:50:56.842Z,16.20
2023-05-10T05:53:24.449Z,16.20
2023-05-10T05:55:55.850Z,16.20
2023-05-10T05:58:23.484Z,16.20
2023-05-10T06:00:51.012Z,16.21
2023-05-10T06:03:18.604Z,16.20
2023-05-10T06:05:47.505Z,16.19
2023-05-10T06:08:14.929Z,16.20
2023-05-10T06:10:42.382Z,16.20
2023-05-10T06:13:09.899Z,16.22
2023-05-10T06:15:37.482Z,16.20
2023-05-10T06:18:05.088Z,16.21
2023-05-10T06:20:33.338Z,16.21
2023-05-10T06:23:02.123Z,16.22
2023-05-10T06:25:29.595Z,16.23
2023-05-10T06:27:58.838Z,16.21
2023-05-10T06:30:28.492Z,16.22
2023-05-10T06:32:56.400Z,16.23
2023-05-10T06:35:23.876Z,16.23
2023-05-10T06:37:51.323Z,16.23
2023-05-10T06:40:20.723Z,16.22
2023-05-10T06:42:48.399Z,16.23
2023-05-10T06:45:16.528Z,16.23
2023-05-10T06:47:44.383Z,16.23
2023-05-10T06:50:12.921Z,16.22
2023-05-10T06:52:40.811Z,16.22
2023-05-10T06:55:09.296Z,16.24
2023-05-10T06:57:38.180Z,16.23
2023-05-10T07:00:06.346Z,16.23
2023-05-10T07:02:33.944Z,16.24
2023-05-10T07:05:03.098Z,16.24
2023-05-10T07:07:31.089Z,16.23
2023-05-10T07:09:58.708Z,16.25
2023-05-10T07:12:26.458Z,16.25
2023-05-10T07:14:55.370Z,16.25
2023-05-10T07:17:22.903Z,16.25
2023-05-10T07:19:50.802Z,16.25
2023-05-10T07:22:18.659Z,16.25
2023-05-10T07:24:46.445Z,16.25
2023-05-10T07:27:13.948Z,16.26
2023-05-10T07:29:41.491Z,16.25
2023-05-10T07:32:10.317Z,16.25
2023-05-10T07:34:37.903Z,16.24
2023-05-10T07:37:05.389Z,16.25
2023-05-10T07:39:32.808Z,16.25
2023-05-10T07:42:00.248Z,16.25
2023-05-10T07:44:27.717Z,16.25
2023-05-10T07:46:55.143Z,16.25
2023-05-10T07:49:25.088Z,16.26
2023-05-10T07:51:52.648Z,16.25
2023-05-10T07:54:20.100Z,16.26
2023-05-10T07:56:48.301Z,16.26
2023-05-10T07:59:17.352Z,16.27
2023-05-10T08:01:45.116Z,16.27
2023-05-10T08:04:12.661Z,16.26
2023-05-10T08:06:41.735Z,16.27
2023-05-10T08:09:09.447Z,16.28
2023-05-10T08:11:37.199Z,16.27
2023-05-10T08:14:04.661Z,16.27
2023-05-10T08:16:33.281Z,16.28
2023-05-10T08:19:00.848Z,16.27
2023-05-10T08:21:28.357Z,16.27
2023-05-10T08:23:57.185Z,16.28
2023-05-10T08:26:24.579Z,16.27
2023-05-10T08:28:52.044Z,16.27
2023-05-10T08:31:19.967Z,16.27
2023-05-10T08:33:47.468Z,16.27
2023-05-10T08:36:20.572Z,16.29
2023-05-10T08:38:48.708Z,16.27
2023-05-10T08:41:18.766Z,16.28
2023-05-10T08:43:47.277Z,16.27
2023-05-10T08:46:17.435Z,16.27
2023-05-10T08:48:45.157Z,16.26
2023-05-10T08:51:14.906Z,16.26
2023-05-10T08:53:42.500Z,16.26
2023-05-10T08:56:10.213Z,16.26
2023-05-10T08:58:39.352Z,16.26
2023-05-10T09:01:07.243Z,16.26
2023-05-10T09:03:34.729Z,16.25
2023-05-10T09:06:02.173Z,16.26
2023-05-10T09:08:30.368Z,16.25
2023-05-10T09:10:57.858Z,16.25
2023-05-10T09:13:25.638Z,16.25
2023-05-10T09:15:54.901Z,16.26
2023-05-10T09:18:22.417Z,16.25
2023-05-10T09:20:50.449Z,16.25
2023-05-10T09:23:17.902Z,16.25
2023-05-10T09:25:45.376Z,16.25
2023-05-10T09:28:13.035Z,16.26
2023-05-10T09:30:40.601Z,16.26
2023-05-10T09:33:09.422Z,16.27
2023-05-10T09:35:37.096Z,16.25
2023-05-10T09:38:05.366Z,16.26
2023-05-10T09:40:33.077Z,16.26
2023-05-10T09:43:01.246Z,16.26
2023-05-10T09:45:29.813Z,16.27
2023-05-10T09:47:57.635Z,16.27
2023-05-10T09:50:26.948Z,16.26
2023-05-10T09:52:54.955Z,16.26
2023-05-10T09:55:24.256Z,16.26
2023-05-10T09:58:00.112Z,16.26
2023-05-10T10:00:28.272Z,16.26
2023-05-10T10:02:56.736Z,16.27
2023-05-10T10:05:31.236Z,16.26
2023-05-10T10:07:59.260Z,16.26
2023-05-10T10:10:27.134Z,16.26
2023-05-10T10:12:54.723Z,16.26
2023-05-10T10:15:22.968Z,16.26
2023-05-10T10:17:51.292Z,16.26
2023-05-10T10:20:19.146Z,16.25
2023-05-10T10:22:48.549Z,16.25
2023-05-10T10:25:17.122Z,16.25
2023-05-10T10:27:48.010Z,16.26
2023-05-10T10:30:24.495Z,16.25
2023-05-10T10:33:16.837Z,16.25
2023-05-10T10:35:55.203Z,16.26
2023-05-10T10:38:24.055Z,16.25
2023-05-10T10:41:03.760Z,16.24
2023-05-10T10:43:31.489Z,16.24
2023-05-10T10:46:15.313Z,16.25
2023-05-10T10:48:43.436Z,16.25
2023-05-10T10:51:12.799Z,16.24
2023-05-10T10:53:42.108Z,16.24
2023-05-10T10:56:10.546Z,16.24
2023-05-10T10:58:38.845Z,16.24
2023-05-10T11:01:13.128Z,16.25
2023-05-10T11:03:40.804Z,16.26
2023-05-10T11:06:08.833Z,16.24
2023-05-10T11:08:38.370Z,16.25
2023-05-10T11:11:11.348Z,16.25
2023-05-10T11:13:44.353Z,16.26
2023-05-10T11:16:16.135Z,16.25
2023-05-10T11:18:54.084Z,16.26
2023-05-10T11:21:21.671Z,16.25
2023-05-10T11:23:52.813Z,16.26
2023-05-10T11:26:24.214Z,16.26
2023-05-10T11:28:52.244Z,16.26
2023-05-10T11:31:20.381Z,16.27
2023-05-10T11:33:48.644Z,16.26
2023-05-10T11:36:16.534Z,16.26
2023-05-10T11:38:44.130Z,16.25
2023-05-10T11:41:12.517Z,16.25
2023-05-10T11:43:41.903Z,16.26
2023-05-10T11:46:09.838Z,16.26
2023-05-10T11:48:37.404Z,16.26
2023-05-10T11:51:04.918Z,16.25
2023-05-10T11:53:33.833Z,16.26
2023-05-10T11:56:04.827Z,16.25
2023-05-10T11:58:32.640Z,16.25
2023-05-10T12:01:01.883Z,16.25
2023-05-10T12:03:29.916Z,16.24
2023-05-10T12:05:58.063Z,16.25
2023-05-10T12:08:26.424Z,16.25
2023-05-10T12:10:54.234Z,16.25
2023-05-10T12:13:22.216Z,16.24
2023-05-10T12:15:49.693Z,16.25
2023-05-10T12:18:25.262Z,16.25
2023-05-10T12:20:53.893Z,16.24
2023-05-10T12:23:21.844Z,16.25
2023-05-10T12:25:49.249Z,16.25
2023-05-10T12:28:16.670Z,16.24
2023-05-10T12:30:44.102Z,16.25
2023-05-10T12:33:12.564Z,16.25
2023-05-10T12:35:48.518Z,16.26
2023-05-10T12:38:26.814Z,16.26
2023-05-10T12:40:54.335Z,16.25
2023-05-10T12:43:21.773Z,16.25
2023-05-10T12:45:49.826Z,16.25
2023-05-10T12:48:17.278Z,16.25
2023-05-10T12:50:44.833Z,16.25
2023-05-10T12:53:14.782Z,16.26
2023-05-10T12:55:42.217Z,16.25
2023-05-10T12:58:09.918Z,16.25
2023-05-10T13:00:38.884Z,16.26
2023-05-10T13:03:07.185Z,16.26
2023-05-10T13:05:34.841Z,16.26
2023-05-10T13:08:02.405Z,16.26
2023-05-10T13:10:31.791Z,16.25
2023-05-10T13:12:59.678Z,16.26
2023-05-10T13:15:27.718Z,16.26
2023-05-10T13:17:55.725Z,16.25
2023-05-10T13:20:23.231Z,16.25
2023-05-10T13:22:52.204Z,16.26
2023-05-10T13:25:19.737Z,16.25
2023-05-10T13:27:48.535Z,16.25
2023-05-10T13:30:16.192Z,16.26
2023-05-10T13:32:43.854Z,16.25
2023-05-10T13:35:11.313Z,16.24
2023-05-10T13:37:38.734Z,16.25
2023-05-10T13:40:07.236Z,16.24
2023-05-10T13:42:35.239Z,16.25
2023-05-10T13:45:04.151Z,16.24
2023-05-10T13:47:31.962Z,16.24
2023-05-10T13:49:59.471Z,16.23
2023-05-10T13:52:27.006Z,16.24
2023-05-10T13:54:55.980Z,16.25
2023-05-10T13:57:24.058Z,16.25
2023-05-10T13:59:51.591Z,16.24
2023-05-10T14:02:20.383Z,16.25
2023-05-10T14:04:47.921Z,16.24
2023-05-10T14:07:15.340Z,16.24
2023-05-10T14:09:42.780Z,16.24
2023-05-10T14:12:11.609Z,16.26
2023-05-10T14:14:39.022Z,16.24
2023-05-10T14:17:06.494Z,16.26
2023-05-10T14:19:35.293Z,16.26
2023-05-10T14:22:02.747Z,16.28
2023-05-10T14:24:30.315Z,16.28
2023-05-10T14:26:58.135Z,16.27
2023-05-10T14:29:25.756Z,16.28
2023-05-10T14:31:53.271Z,16.28
2023-05-10T14:34:20.962Z,16.29
2023-05-10T14:36:49.710Z,16.30
2023-05-10T14:39:17.392Z,16.29
2023-05-10T14:41:45.573Z,16.30
2023-05-10T14:44:13.115Z,16.30
2023-05-10T14:46:41.142Z,16.30
2023-05-10T14:49:08.549Z,16.30
2023-05-10T14:51:37.709Z,16.29
2023-05-10T14:54:06.707Z,16.30
2023-05-10T14:56:34.153Z,16.46
2023-05-10T14:59:01.715Z,16.59
2023-05-10T15:01:29.950Z,16.53
2023-05-10T15:03:58.134Z,16.48
2023-05-10T15:06:26.960Z,16.44
2023-05-10T15:08:54.412Z,16.42
2023-05-10T15:11:23.228Z,16.40
2023-05-10T15:13:50.636Z,16.37
2023-05-10T15:16:18.133Z,16.37
2023-05-10T15:18:45.713Z,16.37
2023-05-10T15:21:13.576Z,16.37
2023-05-10T15:23:41.314Z,16.37
2023-05-10T15:26:08.821Z,16.36
2023-05-10T15:28:37.668Z,16.36
2023-05-10T15:31:05.196Z,16.35
2023-05-10T15:33:32.758Z,16.36
2023-05-10T15:36:00.190Z,16.36
2023-05-10T15:38:27.774Z,16.35
2023-05-10T15:40:58.209Z,16.35
2023-05-10T15:43:25.663Z,16.35
2023-05-10T15:45:54.430Z,16.35
2023-05-10T15:48:21.947Z,16.35
2023-05-10T15:50:49.350Z,16.36
2023-05-10T15:53:16.761Z,16.35
2023-05-10T15:55:45.036Z,16.36
2023-05-10T15:58:12.662Z,16.35
2023-05-10T16:00:40.482Z,16.36
2023-05-10T16:03:09.701Z,16.35
2023-05-10T16:05:37.373Z,16.36
2023-05-10T16:08:04.971Z,16.36
2023-05-10T16:10:33.104Z,16.36
2023-05-10T16:13:02.290Z,16.35
2023-05-10T16:15:29.733Z,16.37
2023-05-10T16:17:57.900Z,16.36
2023-05-10T16:20:27.962Z,16.36
2023-05-10T16:22:55.441Z,16.35
2023-05-10T16:25:23.021Z,16.36
2023-05-10T16:27:50.985Z,16.36
2023-05-10T16:30:18.408Z,16.35
2023-05-10T16:32:45.930Z,16.35
2023-05-10T16:35:13.368Z,16.42
2023-05-10T16:37:42.199Z,16.41
2023-05-10T16:40:10.469Z,16.40
2023-05-10T16:42:37.976Z,16.38
2023-05-10T16:45:08.973Z,16.37
2023-05-10T16:47:37.340Z,16.50
2023-05-10T16:50:05.623Z,16.48
2023-05-10T16:52:33.592Z,16.44
2023-05-10T16:55:03.098Z,16.43
2023-05-10T16:57:30.610Z,16.42
2023-05-10T16:59:58.222Z,16.41
2023-05-10T17:02:25.750Z,16.40
2023-05-10T17:04:56.023Z,16.40
2023-05-10T17:07:26.189Z,16.41
2023-05-10T17:09:53.887Z,16.41
2023-05-10T17:12:22.670Z,16.40
2023-05-10T17:14:50.295Z,16.41
2023-05-10T17:17:17.746Z,16.40
2023-05-10T17:19:45.860Z,16.40
2023-05-10T17:22:13.668Z,16.41
2023-05-10T17:24:41.337Z,16.41
2023-05-10T17:27:08.847Z,16.41
2023-05-10T17:29:37.637Z,16.40
2023-05-10T17:32:05.176Z,16.41
2023-05-10T17:34:32.738Z,16.43
2023-05-10T17:37:00.162Z,16.41
2023-05-10T17:39:27.612Z,16.46
2023-05-10T17:41:55.101Z,16.46
2023-05-10T17:44:22.562Z,16.46
2023-05-10T17:46:51.380Z,16.43
2023-05-10T17:49:18.824Z,16.43
2023-05-10T17:51:47.993Z,16.42
2023-05-10T17:54:15.565Z,16.41
2023-05-10T17:56:42.987Z,16.42
2023-05-10T17:59:10.431Z,16.40
2023-05-10T18:01:38.006Z,16.40
2023-05-10T18:04:07.872Z,16.39
2023-05-10T18:06:36.846Z,16.40
2023-05-10T18:09:04.785Z,16.38
2023-05-10T18:11:32.241Z,16.39
2023-05-10T18:13:59.626Z,16.39
2023-05-10T18:16:27.210Z,16.39
2023-05-10T18:18:54.794Z,16.39
2023-05-10T18:21:23.630Z,16.39
2023-05-10T18:23:51.090Z,16.38
2023-05-10T18:26:19.005Z,16.38
2023-05-10T18:28:46.710Z,16.37
2023-05-10T18:31:14.336Z,16.37
2023-05-10T18:33:41.925Z,16.38
2023-05-10T18:36:09.512Z,16.37
2023-05-10T18:38:38.502Z,16.37
2023-05-10T18:41:06.343Z,16.38
2023-05-10T18:43:34.748Z,16.37
2023-05-10T18:46:02.277Z,16.37
2023-05-10T18:48:29.820Z,16.39
2023-05-10T18:50:57.245Z,16.38
2023-05-10T18:53:24.704Z,16.37
2023-05-10T18:55:58.772Z,16.39
2023-05-10T18:58:27.993Z,16.39
2023-05-10T19:00:55.395Z,16.39
2023-05-10T19:03:23.017Z,16.39
2023-05-10T19:05:50.470Z,16.39
2023-05-10T19:08:18.058Z,16.39
2023-05-10T19:10:45.851Z,16.39
2023-05-10T19:13:15.112Z,16.41
2023-05-10T19:15:42.581Z,16.40
2023-05-10T19:18:10.107Z,16.41
2023-05-10T19:20:38.524Z,16.41
2023-05-10T19:23:10.128Z,16.40
2023-05-10T19:25:39.268Z,16.40
2023-05-10T19:28:06.847Z,16.41
2023-05-10T19:30:35.926Z,16.40
2023-05-10T19:33:05.414Z,16.40
2023-05-10T19:35:33.087Z,16.40
2023-05-10T19:38:00.517Z,16.39
2023-05-10T19:40:28.097Z,16.40
2023-05-10T19:42:56.979Z,16.39
2023-05-10T19:45:24.525Z,16.40
2023-05-10T19:47:53.422Z,16.39
2023-05-10T19:50:20.994Z,16.40
2023-05-10T19:52:49.408Z,16.39
2023-05-10T19:55:27.081Z,16.38
2023-05-10T19:57:54.490Z,16.38
2023-05-10T20:00:22.070Z,16.38
2023-05-10T20:02:50.449Z,16.39
2023-05-10T20:05:19.489Z,16.39
2023-05-10T20:07:47.084Z,16.38
2023-05-10T20:10:15.476Z,16.38
2023-05-10T20:12:42.888Z,16.38
2023-05-10T20:15:10.553Z,16.38
2023-05-10T20:17:38.079Z,16.39
2023-05-10T20:20:05.929Z,16.38
2023-05-10T20:22:34.707Z,16.38
2023-05-10T20:25:02.161Z,16.38
2023-05-10T20:27:29.594Z,16.38
2023-05-10T20:29:57.033Z,16.38
2023-05-10T20:32:24.492Z,16.39
2023-05-10T20:34:51.989Z,16.39
2023-05-10T20:37:19.550Z,16.40
2023-05-10T20:39:50.362Z,16.39
2023-05-10T20:42:18.021Z,16.39
2023-05-10T20:44:45.487Z,16.39
2023-05-10T20:47:13.115Z,16.40
2023-05-10T20:49:40.593Z,16.40
2023-05-10T20:52:08.438Z,16.39
2023-05-10T20:54:35.947Z,16.40
2023-05-10T20:57:04.709Z,16.39
2023-05-10T20:59:32.166Z,16.39
2023-05-10T21:01:59.703Z,16.39
2023-05-10T21:04:27.266Z,16.39
2023-05-10T21:06:55.696Z,16.39
2023-05-10T21:09:23.229Z,16.38
2023-05-10T21:11:50.787Z,16.38
2023-05-10T21:14:19.604Z,16.39
2023-05-10T21:16:47.039Z,16.38
2023-05-10T21:19:14.484Z,16.37
2023-05-10T21:21:41.971Z,16.38
2023-05-10T21:24:09.382Z,16.37
2023-05-10T21:26:37.361Z,16.36
2023-05-10T21:29:05.297Z,16.38
2023-05-10T21:31:34.291Z,16.37
2023-05-10T21:34:01.918Z,16.37
2023-05-10T21:36:29.338Z,16.36
2023-05-10T21:38:56.810Z,16.37
2023-05-10T21:41:24.367Z,16.37
2023-05-10T21:43:51.824Z,16.37
2023-05-10T21:46:19.485Z,16.37
2023-05-10T21:48:48.466Z,16.36
2023-05-10T21:51:15.896Z,16.37
2023-05-10T21:53:43.386Z,16.35
2023-05-10T21:56:10.847Z,16.36
2023-05-10T21:58:38.276Z,16.36
2023-05-10T22:01:06.077Z,16.37
2023-05-10T22:03:33.596Z,16.37
2023-05-10T22:06:02.447Z,16.37
2023-05-10T22:08:29.981Z,16.37
2023-05-10T22:10:57.442Z,16.37
2023-05-10T22:13:24.839Z,16.36
2023-05-10T22:15:52.625Z,16.36
2023-05-10T22:18:20.061Z,16.36
2023-05-10T22:20:47.976Z,16.37
2023-05-10T22:23:16.764Z,16.37
2023-05-10T22:25:44.189Z,16.36
2023-05-10T22:28:11.609Z,16.36
2023-05-10T22:30:39.120Z,16.36
2023-05-10T22:33:06.623Z,16.35
2023-05-10T22:35:34.156Z,16.35
2023-05-10T22:38:01.593Z,16.35
2023-05-10T22:40:30.370Z,16.36
2023-05-10T22:42:57.810Z,16.35
2023-05-10T22:45:25.248Z,16.35
2023-05-10T22:47:52.726Z,16.34
2023-05-10T22:50:20.594Z,16.33
2023-05-10T22:52:48.079Z,16.33
2023-05-10T22:55:15.616Z,16.32
2023-05-10T22:57:44.397Z,16.33
2023-05-10T23:00:12.307Z,16.32
2023-05-10T23:02:39.776Z,16.33
2023-05-10T23:05:08.018Z,16.32
2023-05-10T23:07:35.499Z,16.31
2023-05-10T23:10:02.943Z,16.32
2023-05-10T23:12:31.177Z,16.32
2023-05-10T23:14:59.927Z,16.32
2023-05-10T23:17:27.419Z,16.31
2023-05-10T23:19:54.858Z,16.32
2023-05-10T23:22:22.288Z,16.30
2023-05-10T23:24:49.738Z,16.30
2023-05-10T23:27:17.243Z,16.30
2023-05-10T23:29:44.688Z,16.30
2023-05-10T23:32:13.522Z,16.31
2023-05-10T23:34:40.962Z,16.31
2023-05-10T23:37:08.449Z,16.30
2023-05-10T23:39:36.379Z,16.30
2023-05-10T23:42:04.271Z,16.31
2023-05-10T23:44:31.760Z,16.30
2023-05-10T23:46:59.231Z,16.30
2023-05-10T23:49:28.134Z,16.30
2023-05-10T23:51:55.581Z,16.30
2023-05-10T23:54:23.319Z,16.31
2023-05-10T23:56:51.510Z,16.31
2023-05-10T23:59:18.944Z,16.31
